createdAt,value
2022-12-06T00:03:09.223Z,100124.34
2022-12-06T00:08:10.758Z,100115.09
2022-12-06T00:13:12.192Z,100115.00
2022-12-06T00:18:13.560Z,100108.94
2022-12-06T00:23:15.118Z,100122.81
2022-12-06T00:28:16.896Z,100122.94
2022-12-06T00:33:18.292Z,100126.84
2022-12-06T00:38:19.671Z,100118.66
2022-12-06T00:43:21.041Z,100114.25
2022-12-06T00:48:22.511Z,100123.28
2022-12-06T00:53:23.889Z,100107.16
2022-12-06T00:58:25.318Z,100118.41
2022-12-06T01:03:29.697Z,100118.78
2022-12-06T01:08:35.305Z,100121.28
2022-12-06T01:13:36.936Z,100127.06
2022-12-06T01:18:38.639Z,100117.47
2022-12-06T01:23:40.004Z,100105.47
2022-12-06T01:28:41.365Z,100093.13
2022-12-06T01:33:43.004Z,100078.97
2022-12-06T01:38:44.400Z,100074.84
2022-12-06T01:43:45.860Z,100076.00
2022-12-06T01:48:48.763Z,100071.38
2022-12-06T01:53:50.266Z,100060.91
2022-12-06T01:58:52.532Z,100062.59
2022-12-06T02:03:55.194Z,100049.75
2022-12-06T02:08:57.435Z,100040.47
2022-12-06T02:13:59.060Z,100030.16
2022-12-06T02:19:28.039Z,100029.06
2022-12-06T02:24:51.287Z,100027.91
2022-12-06T02:30:11.022Z,100019.34
2022-12-06T02:35:24.939Z,100022.09
2022-12-06T02:40:31.001Z,100019.94
2022-12-06T02:45:33.922Z,100015.78
2022-12-06T02:50:37.918Z,100001.06
2022-12-06T02:55:39.639Z,100005.69
2022-12-06T03:00:51.630Z,99996.75
2022-12-06T03:06:02.149Z,99996.75
2022-12-06T03:11:03.545Z,99997.00
2022-12-06T03:16:27.567Z,99995.81
2022-12-06T03:21:50.175Z,99995.97
2022-12-06T03:26:51.550Z,99988.94
2022-12-06T03:31:52.927Z,99992.88
2022-12-06T03:36:54.335Z,99991.78
2022-12-06T03:41:57.368Z,99988.06
2022-12-06T03:47:02.052Z,99975.06
2022-12-06T03:52:03.810Z,99967.44
2022-12-06T03:57:05.169Z,99971.22
2022-12-06T04:02:06.579Z,99970.16
2022-12-06T04:07:09.138Z,99972.16
2022-12-06T04:12:28.957Z,99961.47
2022-12-06T04:17:48.722Z,99971.50
2022-12-06T04:23:04.924Z,99972.63
2022-12-06T04:28:24.971Z,99965.06
2022-12-06T04:33:44.591Z,99955.94
2022-12-06T04:38:46.008Z,99955.59
2022-12-06T04:43:47.380Z,99955.25
2022-12-06T04:48:48.754Z,99953.91
2022-12-06T04:53:50.211Z,99958.91
2022-12-06T04:58:51.631Z,99947.13
2022-12-06T05:03:53.033Z,99947.47
2022-12-06T05:08:54.413Z,99950.69
2022-12-06T05:13:55.797Z,99942.97
2022-12-06T05:18:57.162Z,99945.72
2022-12-06T05:23:58.539Z,99937.88
2022-12-06T05:28:59.915Z,99940.69
2022-12-06T05:34:01.303Z,99947.00
2022-12-06T05:39:02.758Z,99944.75
2022-12-06T05:44:04.158Z,99941.19
2022-12-06T05:49:05.535Z,99949.16
2022-12-06T05:54:06.961Z,99939.28
2022-12-06T05:59:08.319Z,99938.53
2022-12-06T06:04:09.680Z,99939.97
2022-12-06T06:09:11.066Z,99935.31
2022-12-06T06:14:12.461Z,99939.53
2022-12-06T06:19:13.830Z,99935.22
2022-12-06T06:24:15.214Z,99927.03
2022-12-06T06:29:16.627Z,99932.84
2022-12-06T06:34:18.015Z,99938.22
2022-12-06T06:39:19.485Z,99935.00
2022-12-06T06:44:20.860Z,99935.72
2022-12-06T06:49:22.235Z,99943.56
2022-12-06T06:54:23.692Z,99947.97
2022-12-06T06:59:25.227Z,99951.53
2022-12-06T07:04:26.616Z,99947.81
2022-12-06T07:09:27.999Z,99938.38
2022-12-06T07:14:29.379Z,99942.63
2022-12-06T07:19:30.851Z,99941.97
2022-12-06T07:24:36.954Z,99945.31
2022-12-06T07:29:41.383Z,99957.72
2022-12-06T07:34:42.748Z,99946.88
2022-12-06T07:39:44.157Z,99951.72
2022-12-06T07:45:05.372Z,99955.38
2022-12-06T07:50:12.815Z,99945.50
2022-12-06T07:55:17.777Z,99945.84
2022-12-06T08:00:19.564Z,99946.41
2022-12-06T08:05:20.943Z,99948.00
2022-12-06T08:10:22.303Z,99943.44
2022-12-06T08:15:23.682Z,99949.06
2022-12-06T08:20:25.107Z,99939.22
2022-12-06T08:25:26.482Z,99944.91
2022-12-06T08:30:27.860Z,99941.44
2022-12-06T08:35:29.243Z,99945.09
2022-12-06T08:40:30.666Z,99942.25
2022-12-06T08:45:32.057Z,99945.91
2022-12-06T08:50:33.479Z,99943.91
2022-12-06T08:55:34.858Z,99939.63
2022-12-06T09:00:36.250Z,99939.50
2022-12-06T09:05:37.614Z,99940.69
2022-12-06T09:10:39.015Z,99941.25
2022-12-06T09:15:40.405Z,99938.34
2022-12-06T09:20:42.301Z,99934.28
2022-12-06T09:25:43.664Z,99935.94
2022-12-06T09:30:45.056Z,99927.22
2022-12-06T09:35:46.472Z,99928.81
2022-12-06T09:41:18.307Z,99925.50
2022-12-06T09:46:28.797Z,99929.31
2022-12-06T09:51:51.315Z,99911.31
2022-12-06T09:56:58.336Z,99913.88
2022-12-06T10:02:17.077Z,99896.34
2022-12-06T10:07:36.673Z,99899.09
2022-12-06T10:13:07.788Z,99894.47
2022-12-06T10:18:33.297Z,99894.13
2022-12-06T10:24:01.817Z,99895.47
2022-12-06T10:29:18.496Z,99889.16
2022-12-06T10:34:21.838Z,99874.41
2022-12-06T10:39:30.844Z,99875.31
2022-12-06T10:44:44.970Z,99878.47
2022-12-06T10:50:20.173Z,99872.50
2022-12-06T10:55:27.710Z,99872.25
2022-12-06T11:00:31.131Z,99862.38
2022-12-06T11:05:38.377Z,99863.06
2022-12-06T11:10:39.735Z,99862.69
2022-12-06T11:15:42.452Z,99867.97
2022-12-06T11:20:56.699Z,99865.00
2022-12-06T11:26:24.102Z,99856.84
2022-12-06T11:31:28.013Z,99855.97
2022-12-06T11:36:29.480Z,99858.44
2022-12-06T11:41:32.428Z,99850.94
2022-12-06T11:46:33.915Z,99864.19
2022-12-06T11:51:35.342Z,99854.63
2022-12-06T11:56:37.616Z,99847.47
2022-12-06T12:01:41.523Z,99839.88
2022-12-06T12:06:42.907Z,99835.53
2022-12-06T12:11:44.271Z,99833.28
2022-12-06T12:16:47.956Z,99828.66
2022-12-06T12:21:54.017Z,99824.94
2022-12-06T12:26:55.930Z,99818.94
2022-12-06T12:31:58.853Z,99821.13
2022-12-06T12:37:01.490Z,99808.66
2022-12-06T12:42:02.872Z,99809.44
2022-12-06T12:47:17.847Z,99813.56
2022-12-06T12:52:31.467Z,99809.81
2022-12-06T12:57:33.031Z,99814.13
2022-12-06T13:02:35.076Z,99811.72
2022-12-06T13:07:37.185Z,99810.84
2022-12-06T13:12:43.968Z,99808.22
2022-12-06T13:17:47.387Z,99805.09
2022-12-06T13:22:52.329Z,99807.28
2022-12-06T13:27:58.622Z,99805.09
2022-12-06T13:33:07.059Z,99805.22
2022-12-06T13:38:22.639Z,99801.97
2022-12-06T13:43:27.294Z,99793.97
2022-12-06T13:48:53.352Z,99793.66
2022-12-06T13:54:07.689Z,99795.22
2022-12-06T13:59:11.712Z,99800.66
2022-12-06T14:09:28.436Z,99800.50
2022-12-06T14:14:29.814Z,99796.25
2022-12-06T14:19:42.627Z,99802.22
2022-12-06T14:25:01.171Z,99806.84
2022-12-06T14:30:17.195Z,99799.16
2022-12-06T14:35:20.911Z,99800.75
2022-12-06T14:40:45.905Z,99805.91
2022-12-06T14:45:48.631Z,99803.66
2022-12-06T14:51:00.651Z,99806.78
2022-12-06T14:56:06.584Z,99800.22
2022-12-06T15:01:22.196Z,99798.81
2022-12-06T15:06:24.338Z,99805.19
2022-12-06T15:11:45.330Z,99797.50
2022-12-06T15:17:01.514Z,99804.97
2022-12-06T15:22:04.046Z,99809.47
2022-12-06T15:27:05.425Z,99804.00
2022-12-06T15:32:06.811Z,99819.31
2022-12-06T15:37:37.627Z,99799.72
2022-12-06T15:42:31.457Z,99796.16
2022-12-06T15:47:32.821Z,99799.03
2022-12-06T15:52:34.227Z,99803.16
2022-12-06T15:57:35.696Z,99800.00
2022-12-06T16:02:37.090Z,99796.44
2022-12-06T16:07:38.508Z,99801.41
2022-12-06T16:12:58.404Z,99798.41
2022-12-06T16:17:59.763Z,99790.19
2022-12-06T16:23:21.001Z,99794.75
2022-12-06T16:28:22.452Z,99798.25
2022-12-06T16:33:24.434Z,99796.94
2022-12-06T16:38:26.400Z,99802.97
2022-12-06T16:43:27.824Z,99795.09
2022-12-06T16:48:29.200Z,99789.78
2022-12-06T16:53:30.597Z,99795.75
2022-12-06T16:58:31.968Z,99796.44
2022-12-06T17:03:33.349Z,99792.88
2022-12-06T17:08:34.779Z,99788.41
2022-12-06T17:13:36.212Z,99787.56
2022-12-06T17:18:37.614Z,99776.41
2022-12-06T17:23:38.982Z,99789.78
2022-12-06T17:28:40.498Z,99788.66
2022-12-06T17:33:41.904Z,99786.50
2022-12-06T17:38:43.279Z,99798.25
2022-12-06T17:43:44.692Z,99790.13
2022-12-06T17:48:46.067Z,99793.28
2022-12-06T17:53:47.516Z,99791.47
2022-12-06T17:58:49.039Z,99788.31
2022-12-06T18:03:53.921Z,99784.53
2022-12-06T18:08:55.824Z,99793.63
2022-12-06T18:13:57.213Z,99794.69
2022-12-06T18:19:04.630Z,99804.72
2022-12-06T18:24:29.169Z,99802.50
2022-12-06T18:29:31.121Z,99798.69
2022-12-06T18:34:32.516Z,99797.94
2022-12-06T18:39:33.881Z,99797.09
2022-12-06T18:44:35.248Z,99800.59
2022-12-06T18:49:36.612Z,99801.44
2022-12-06T18:54:38.047Z,99801.44
2022-12-06T18:59:39.426Z,99811.03
2022-12-06T19:04:40.825Z,99805.28
2022-12-06T19:09:42.193Z,99801.94
2022-12-06T19:14:43.644Z,99804.88
2022-12-06T19:19:45.031Z,99799.44
2022-12-06T19:24:46.392Z,99799.19
2022-12-06T19:29:48.799Z,99808.53
2022-12-06T19:34:50.252Z,99808.47
2022-12-06T19:39:51.668Z,99811.44
2022-12-06T19:44:53.058Z,99814.50
2022-12-06T19:49:54.428Z,99806.06
2022-12-06T19:54:55.824Z,99795.97
2022-12-06T19:59:57.242Z,99814.19
2022-12-06T20:04:58.621Z,99808.47
2022-12-06T20:10:00.189Z,99807.38
2022-12-06T20:15:01.832Z,99801.94
2022-12-06T20:20:03.754Z,99811.75
2022-12-06T20:25:05.626Z,99803.97
2022-12-06T20:30:07.690Z,99803.97
2022-12-06T20:35:09.135Z,99793.63
2022-12-06T20:40:11.026Z,99792.63
2022-12-06T20:45:12.829Z,99783.78
2022-12-06T20:50:16.139Z,99780.72
2022-12-06T20:55:17.604Z,99792.81
2022-12-06T21:00:19.687Z,99788.75
2022-12-06T21:05:21.050Z,99790.88
2022-12-06T21:10:22.463Z,99798.78
2022-12-06T21:15:23.943Z,99798.44
2022-12-06T21:20:25.301Z,99798.78
2022-12-06T21:25:26.984Z,99795.56
2022-12-06T21:30:28.384Z,99801.03
2022-12-06T21:35:29.923Z,99796.28
2022-12-06T21:40:32.219Z,99791.09
2022-12-06T21:45:37.055Z,99802.09
2022-12-06T21:50:38.436Z,99797.19
2022-12-06T21:55:40.944Z,99791.38
2022-12-06T22:00:42.313Z,99796.06
2022-12-06T22:05:43.678Z,99795.78
2022-12-06T22:10:45.045Z,99791.16
2022-12-06T22:15:46.514Z,99788.66
2022-12-06T22:21:05.933Z,99784.28
2022-12-06T22:26:08.408Z,99781.47
2022-12-06T22:31:15.658Z,99785.13
2022-12-06T22:36:17.176Z,99782.13
2022-12-06T22:41:18.767Z,99781.22
2022-12-06T22:46:20.320Z,99782.28
2022-12-06T22:51:42.384Z,99789.50
2022-12-06T22:56:49.736Z,99778.56
2022-12-06T23:01:51.245Z,99785.00
2022-12-06T23:06:52.781Z,99782.28
2022-12-06T23:11:54.148Z,99774.19
2022-12-06T23:16:55.508Z,99778.31
2022-12-06T23:21:56.887Z,99774.75
2022-12-06T23:26:58.600Z,99780.97
2022-12-06T23:32:00.116Z,99778.97
2022-12-06T23:37:01.567Z,99788.25
2022-12-06T23:42:02.936Z,99777.16
2022-12-06T23:47:04.533Z,99777.66
2022-12-06T23:52:05.918Z,99771.13
2022-12-06T23:57:07.329Z,99777.09
